sensor_id;sensor_type;location;lat;lon;timestamp;temperature;humidity
68924;DHT22;55961;52.156;20.942;2023-05-13T00:02:20;12.70;52.70
68924;DHT22;55961;52.156;20.942;2023-05-13T00:04:46;12.70;52.80
68924;DHT22;55961;52.156;20.942;2023-05-13T00:07:12;12.70;52.80
68924;DHT22;55961;52.156;20.942;2023-05-13T00:09:37;12.60;52.90
68924;DHT22;55961;52.156;20.942;2023-05-13T00:12:04;12.60;53.20
68924;DHT22;55961;52.156;20.942;2023-05-13T00:14:30;12.60;52.90
68924;DHT22;55961;52.156;20.942;2023-05-13T00:16:56;12.60;53.10
68924;DHT22;55961;52.156;20.942;2023-05-13T00:19:24;12.60;53.40
68924;DHT22;55961;52.156;20.942;2023-05-13T00:21:50;12.60;53.60
68924;DHT22;55961;52.156;20.942;2023-05-13T00:24:15;12.60;53.50
68924;DHT22;55961;52.156;20.942;2023-05-13T00:26:42;12.60;53.50
68924;DHT22;55961;52.156;20.942;2023-05-13T00:29:07;12.50;53.60
68924;DHT22;55961;52.156;20.942;2023-05-13T00:31:33;12.50;53.90
68924;DHT22;55961;52.156;20.942;2023-05-13T00:33:59;12.50;54.40
68924;DHT22;55961;52.156;20.942;2023-05-13T00:36:25;12.40;54.70
68924;DHT22;55961;52.156;20.942;2023-05-13T00:38:51;12.40;54.70
68924;DHT22;55961;52.156;20.942;2023-05-13T00:41:18;12.40;55.00
68924;DHT22;55961;52.156;20.942;2023-05-13T00:43:44;12.40;55.10
68924;DHT22;55961;52.156;20.942;2023-05-13T00:46:10;12.30;54.70
68924;DHT22;55961;52.156;20.942;2023-05-13T00:48:37;12.30;54.70
68924;DHT22;55961;52.156;20.942;2023-05-13T00:51:03;12.20;54.70
68924;DHT22;55961;52.156;20.942;2023-05-13T00:53:31;12.20;54.80
68924;DHT22;55961;52.156;20.942;2023-05-13T00:55:57;12.10;55.30
68924;DHT22;55961;52.156;20.942;2023-05-13T00:58:23;12.10;55.60
68924;DHT22;55961;52.156;20.942;2023-05-13T01:03:28;12.00;56.00
68924;DHT22;55961;52.156;20.942;2023-05-13T01:06:12;12.00;55.80
68924;DHT22;55961;52.156;20.942;2023-05-13T01:09:05;11.90;55.90
68924;DHT22;55961;52.156;20.942;2023-05-13T01:11:37;11.90;56.30
68924;DHT22;55961;52.156;20.942;2023-05-13T01:14:21;11.90;56.40
68924;DHT22;55961;52.156;20.942;2023-05-13T01:16:48;11.90;56.50
68924;DHT22;55961;52.156;20.942;2023-05-13T01:19:40;11.90;56.50
68924;DHT22;55961;52.156;20.942;2023-05-13T01:22:07;11.90;57.30
68924;DHT22;55961;52.156;20.942;2023-05-13T01:24:33;11.90;57.20
68924;DHT22;55961;52.156;20.942;2023-05-13T01:26:59;11.90;57.10
68924;DHT22;55961;52.156;20.942;2023-05-13T01:29:25;11.90;57.10
68924;DHT22;55961;52.156;20.942;2023-05-13T01:31:52;11.80;57.30
68924;DHT22;55961;52.156;20.942;2023-05-13T01:34:21;11.80;57.30
68924;DHT22;55961;52.156;20.942;2023-05-13T01:36:48;11.80;57.40
68924;DHT22;55961;52.156;20.942;2023-05-13T01:39:15;11.70;57.60
68924;DHT22;55961;52.156;20.942;2023-05-13T01:41:42;11.80;57.70
68924;DHT22;55961;52.156;20.942;2023-05-13T01:44:09;11.70;57.80
68924;DHT22;55961;52.156;20.942;2023-05-13T01:46:37;11.70;57.60
68924;DHT22;55961;52.156;20.942;2023-05-13T01:49:03;11.70;57.40
68924;DHT22;55961;52.156;20.942;2023-05-13T01:51:30;11.60;57.30
68924;DHT22;55961;52.156;20.942;2023-05-13T01:53:56;11.60;57.20
68924;DHT22;55961;52.156;20.942;2023-05-13T01:56:22;11.60;57.50
68924;DHT22;55961;52.156;20.942;2023-05-13T01:58:48;11.60;57.70
68924;DHT22;55961;52.156;20.942;2023-05-13T02:01:14;11.60;57.90
68924;DHT22;55961;52.156;20.942;2023-05-13T02:03:40;11.50;58.10
68924;DHT22;55961;52.156;20.942;2023-05-13T02:06:06;11.50;58.20
68924;DHT22;55961;52.156;20.942;2023-05-13T02:08:32;11.50;58.30
68924;DHT22;55961;52.156;20.942;2023-05-13T02:10:59;11.40;58.30
68924;DHT22;55961;52.156;20.942;2023-05-13T02:13:25;11.40;58.40
68924;DHT22;55961;52.156;20.942;2023-05-13T02:15:52;11.40;58.60
68924;DHT22;55961;52.156;20.942;2023-05-13T02:18:18;11.30;58.80
68924;DHT22;55961;52.156;20.942;2023-05-13T02:20:45;11.30;58.90
68924;DHT22;55961;52.156;20.942;2023-05-13T02:23:11;11.30;59.00
68924;DHT22;55961;52.156;20.942;2023-05-13T02:25:37;11.30;59.30
68924;DHT22;55961;52.156;20.942;2023-05-13T02:28:03;11.30;59.60
68924;DHT22;55961;52.156;20.942;2023-05-13T02:30:29;11.30;59.70
68924;DHT22;55961;52.156;20.942;2023-05-13T02:32:56;11.30;59.50
68924;DHT22;55961;52.156;20.942;2023-05-13T02:35:22;11.30;59.90
68924;DHT22;55961;52.156;20.942;2023-05-13T02:37:50;11.30;59.90
68924;DHT22;55961;52.156;20.942;2023-05-13T02:40:16;11.30;60.10
68924;DHT22;55961;52.156;20.942;2023-05-13T02:42:41;11.30;60.30
68924;DHT22;55961;52.156;20.942;2023-05-13T02:45:09;11.30;60.20
68924;DHT22;55961;52.156;20.942;2023-05-13T02:47:35;11.30;60.20
68924;DHT22;55961;52.156;20.942;2023-05-13T02:50:02;11.30;60.10
68924;DHT22;55961;52.156;20.942;2023-05-13T02:52:30;11.30;60.20
68924;DHT22;55961;52.156;20.942;2023-05-13T02:54:56;11.30;60.20
68924;DHT22;55961;52.156;20.942;2023-05-13T02:57:22;11.30;60.20
68924;DHT22;55961;52.156;20.942;2023-05-13T02:59:48;11.30;60.50
68924;DHT22;55961;52.156;20.942;2023-05-13T03:02:14;11.30;60.70
68924;DHT22;55961;52.156;20.942;2023-05-13T03:04:40;11.30;60.90
68924;DHT22;55961;52.156;20.942;2023-05-13T03:07:06;11.30;60.60
68924;DHT22;55961;52.156;20.942;2023-05-13T03:09:32;11.30;60.60
68924;DHT22;55961;52.156;20.942;2023-05-13T03:11:59;11.30;60.40
68924;DHT22;55961;52.156;20.942;2023-05-13T03:14:26;11.30;60.20
68924;DHT22;55961;52.156;20.942;2023-05-13T03:16:52;11.30;60.40
68924;DHT22;55961;52.156;20.942;2023-05-13T03:19:18;11.30;60.50
68924;DHT22;55961;52.156;20.942;2023-05-13T03:21:44;11.30;60.90
68924;DHT22;55961;52.156;20.942;2023-05-13T03:24:10;11.40;60.90
68924;DHT22;55961;52.156;20.942;2023-05-13T03:26:36;11.40;61.00
68924;DHT22;55961;52.156;20.942;2023-05-13T03:29:02;11.40;61.30
68924;DHT22;55961;52.156;20.942;2023-05-13T03:31:28;11.40;61.30
68924;DHT22;55961;52.156;20.942;2023-05-13T03:33:54;11.40;61.30
68924;DHT22;55961;52.156;20.942;2023-05-13T03:36:20;11.40;61.00
68924;DHT22;55961;52.156;20.942;2023-05-13T03:38:46;11.40;60.60
68924;DHT22;55961;52.156;20.942;2023-05-13T03:41:11;11.40;60.40
68924;DHT22;55961;52.156;20.942;2023-05-13T03:43:38;11.40;60.60
68924;DHT22;55961;52.156;20.942;2023-05-13T03:46:03;11.40;60.80
68924;DHT22;55961;52.156;20.942;2023-05-13T03:48:29;11.40;60.70
68924;DHT22;55961;52.156;20.942;2023-05-13T03:50:55;11.50;60.80
68924;DHT22;55961;52.156;20.942;2023-05-13T03:53:21;11.50;61.20
68924;DHT22;55961;52.156;20.942;2023-05-13T03:55:47;11.50;61.40
68924;DHT22;55961;52.156;20.942;2023-05-13T03:58:14;11.50;61.10
68924;DHT22;55961;52.156;20.942;2023-05-13T04:00:41;11.60;61.30
68924;DHT22;55961;52.156;20.942;2023-05-13T04:03:07;11.60;61.00
68924;DHT22;55961;52.156;20.942;2023-05-13T04:05:34;11.60;61.20
68924;DHT22;55961;52.156;20.942;2023-05-13T04:08:00;11.60;61.50
68924;DHT22;55961;52.156;20.942;2023-05-13T04:10:26;11.70;61.70
68924;DHT22;55961;52.156;20.942;2023-05-13T04:12:52;11.70;61.20
68924;DHT22;55961;52.156;20.942;2023-05-13T04:15:17;11.70;60.90
68924;DHT22;55961;52.156;20.942;2023-05-13T04:17:43;11.80;61.00
68924;DHT22;55961;52.156;20.942;2023-05-13T04:20:09;11.80;60.80
68924;DHT22;55961;52.156;20.942;2023-05-13T04:22:35;11.80;60.90
68924;DHT22;55961;52.156;20.942;2023-05-13T04:25:01;11.90;61.00
68924;DHT22;55961;52.156;20.942;2023-05-13T04:27:27;11.90;60.60
68924;DHT22;55961;52.156;20.942;2023-05-13T04:29:53;12.00;60.40
68924;DHT22;55961;52.156;20.942;2023-05-13T04:32:19;12.00;60.50
68924;DHT22;55961;52.156;20.942;2023-05-13T04:34:48;12.10;60.60
68924;DHT22;55961;52.156;20.942;2023-05-13T04:37:14;12.20;60.50
68924;DHT22;55961;52.156;20.942;2023-05-13T04:39:42;12.20;60.80
68924;DHT22;55961;52.156;20.942;2023-05-13T04:42:08;12.30;60.60
68924;DHT22;55961;52.156;20.942;2023-05-13T04:44:34;12.40;60.30
68924;DHT22;55961;52.156;20.942;2023-05-13T04:47:00;12.40;59.60
68924;DHT22;55961;52.156;20.942;2023-05-13T04:49:26;12.50;59.40
68924;DHT22;55961;52.156;20.942;2023-05-13T04:51:52;12.50;59.70
68924;DHT22;55961;52.156;20.942;2023-05-13T04:54:18;12.60;61.70
68924;DHT22;55961;52.156;20.942;2023-05-13T04:56:44;12.60;60.00
68924;DHT22;55961;52.156;20.942;2023-05-13T04:59:10;12.70;60.20
68924;DHT22;55961;52.156;20.942;2023-05-13T05:01:36;12.70;60.70
68924;DHT22;55961;52.156;20.942;2023-05-13T05:04:02;12.70;60.80
68924;DHT22;55961;52.156;20.942;2023-05-13T05:06:28;12.80;60.50
68924;DHT22;55961;52.156;20.942;2023-05-13T05:08:54;12.80;60.60
68924;DHT22;55961;52.156;20.942;2023-05-13T05:11:20;12.90;60.50
68924;DHT22;55961;52.156;20.942;2023-05-13T05:13:45;12.90;60.40
68924;DHT22;55961;52.156;20.942;2023-05-13T05:16:12;12.90;60.40
68924;DHT22;55961;52.156;20.942;2023-05-13T05:18:37;13.00;60.40
68924;DHT22;55961;52.156;20.942;2023-05-13T05:21:06;13.10;60.70
68924;DHT22;55961;52.156;20.942;2023-05-13T05:23:31;13.20;59.60
68924;DHT22;55961;52.156;20.942;2023-05-13T05:25:57;13.30;59.30
68924;DHT22;55961;52.156;20.942;2023-05-13T05:28:26;13.30;59.00
68924;DHT22;55961;52.156;20.942;2023-05-13T05:30:53;13.40;58.70
68924;DHT22;55961;52.156;20.942;2023-05-13T05:33:18;13.50;58.70
68924;DHT22;55961;52.156;20.942;2023-05-13T05:35:44;13.50;59.10
68924;DHT22;55961;52.156;20.942;2023-05-13T05:38:11;13.50;59.20
68924;DHT22;55961;52.156;20.942;2023-05-13T05:40:41;13.60;59.10
68924;DHT22;55961;52.156;20.942;2023-05-13T05:43:10;13.60;59.30
68924;DHT22;55961;52.156;20.942;2023-05-13T05:45:37;13.70;59.30
68924;DHT22;55961;52.156;20.942;2023-05-13T05:48:03;13.70;58.70
68924;DHT22;55961;52.156;20.942;2023-05-13T05:50:33;13.80;58.40
68924;DHT22;55961;52.156;20.942;2023-05-13T05:52:59;13.90;58.70
68924;DHT22;55961;52.156;20.942;2023-05-13T05:55:27;13.90;59.10
68924;DHT22;55961;52.156;20.942;2023-05-13T05:57:56;14.10;59.20
68924;DHT22;55961;52.156;20.942;2023-05-13T06:00:23;14.20;58.10
68924;DHT22;55961;52.156;20.942;2023-05-13T06:02:49;14.30;57.60
68924;DHT22;55961;52.156;20.942;2023-05-13T06:05:15;14.50;56.00
68924;DHT22;55961;52.156;20.942;2023-05-13T06:07:41;14.60;55.00
68924;DHT22;55961;52.156;20.942;2023-05-13T06:10:08;14.80;52.40
68924;DHT22;55961;52.156;20.942;2023-05-13T06:12:34;15.00;52.20
68924;DHT22;55961;52.156;20.942;2023-05-13T06:15:00;15.20;51.50
68924;DHT22;55961;52.156;20.942;2023-05-13T06:17:26;15.30;51.10
68924;DHT22;55961;52.156;20.942;2023-05-13T06:19:52;15.50;51.20
68924;DHT22;55961;52.156;20.942;2023-05-13T06:22:18;15.70;51.30
68924;DHT22;55961;52.156;20.942;2023-05-13T06:24:44;15.90;50.90
68924;DHT22;55961;52.156;20.942;2023-05-13T06:27:10;16.10;50.50
68924;DHT22;55961;52.156;20.942;2023-05-13T06:29:39;16.30;50.10
68924;DHT22;55961;52.156;20.942;2023-05-13T06:32:06;16.50;49.50
68924;DHT22;55961;52.156;20.942;2023-05-13T06:34:32;16.70;49.10
68924;DHT22;55961;52.156;20.942;2023-05-13T06:36:58;16.90;48.50
68924;DHT22;55961;52.156;20.942;2023-05-13T06:39:24;17.10;49.00
68924;DHT22;55961;52.156;20.942;2023-05-13T06:41:50;17.30;48.00
68924;DHT22;55961;52.156;20.942;2023-05-13T06:44:16;17.50;48.30
68924;DHT22;55961;52.156;20.942;2023-05-13T06:46:42;17.70;48.00
68924;DHT22;55961;52.156;20.942;2023-05-13T06:49:08;17.90;46.20
68924;DHT22;55961;52.156;20.942;2023-05-13T06:51:33;18.00;45.90
68924;DHT22;55961;52.156;20.942;2023-05-13T06:54:00;18.20;44.20
68924;DHT22;55961;52.156;20.942;2023-05-13T06:56:27;18.40;44.30
68924;DHT22;55961;52.156;20.942;2023-05-13T06:58:54;18.60;42.50
68924;DHT22;55961;52.156;20.942;2023-05-13T07:01:20;18.90;42.70
68924;DHT22;55961;52.156;20.942;2023-05-13T07:03:47;19.00;42.00
68924;DHT22;55961;52.156;20.942;2023-05-13T07:06:13;19.30;42.20
68924;DHT22;55961;52.156;20.942;2023-05-13T07:08:39;19.50;41.60
68924;DHT22;55961;52.156;20.942;2023-05-13T07:11:05;19.70;42.00
68924;DHT22;55961;52.156;20.942;2023-05-13T07:13:31;19.90;40.90
68924;DHT22;55961;52.156;20.942;2023-05-13T07:16:00;20.10;40.70
68924;DHT22;55961;52.156;20.942;2023-05-13T07:18:27;20.40;39.20
68924;DHT22;55961;52.156;20.942;2023-05-13T07:20:54;20.50;38.70
68924;DHT22;55961;52.156;20.942;2023-05-13T07:23:22;20.70;38.20
68924;DHT22;55961;52.156;20.942;2023-05-13T07:25:51;20.90;37.80
68924;DHT22;55961;52.156;20.942;2023-05-13T07:28:18;21.10;37.20
68924;DHT22;55961;52.156;20.942;2023-05-13T07:30:45;21.30;36.80
68924;DHT22;55961;52.156;20.942;2023-05-13T07:33:11;21.50;34.50
68924;DHT22;55961;52.156;20.942;2023-05-13T07:35:37;21.70;35.00
68924;DHT22;55961;52.156;20.942;2023-05-13T07:38:05;21.80;35.00
68924;DHT22;55961;52.156;20.942;2023-05-13T07:40:31;22.00;35.20
68924;DHT22;55961;52.156;20.942;2023-05-13T07:42:57;22.20;34.50
68924;DHT22;55961;52.156;20.942;2023-05-13T07:45:23;22.30;35.00
68924;DHT22;55961;52.156;20.942;2023-05-13T07:47:49;22.50;33.40
68924;DHT22;55961;52.156;20.942;2023-05-13T07:50:15;22.60;33.40
68924;DHT22;55961;52.156;20.942;2023-05-13T07:52:41;22.80;33.60
68924;DHT22;55961;52.156;20.942;2023-05-13T07:55:08;22.90;34.00
68924;DHT22;55961;52.156;20.942;2023-05-13T07:57:35;23.10;31.40
68924;DHT22;55961;52.156;20.942;2023-05-13T08:00:01;23.20;31.70
68924;DHT22;55961;52.156;20.942;2023-05-13T08:02:28;23.30;32.10
68924;DHT22;55961;52.156;20.942;2023-05-13T08:04:59;23.50;32.50
68924;DHT22;55961;52.156;20.942;2023-05-13T08:07:26;23.70;32.20
68924;DHT22;55961;52.156;20.942;2023-05-13T08:09:51;23.80;33.10
68924;DHT22;55961;52.156;20.942;2023-05-13T08:12:17;23.90;32.80
68924;DHT22;55961;52.156;20.942;2023-05-13T08:14:43;24.00;31.50
68924;DHT22;55961;52.156;20.942;2023-05-13T08:17:09;24.10;31.60
68924;DHT22;55961;52.156;20.942;2023-05-13T08:19:35;24.20;31.90
68924;DHT22;55961;52.156;20.942;2023-05-13T08:22:01;24.30;31.60
68924;DHT22;55961;52.156;20.942;2023-05-13T08:24:27;24.40;31.30
68924;DHT22;55961;52.156;20.942;2023-05-13T08:26:53;24.40;31.50
68924;DHT22;55961;52.156;20.942;2023-05-13T08:29:19;24.50;32.30
68924;DHT22;55961;52.156;20.942;2023-05-13T08:31:45;24.60;32.00
68924;DHT22;55961;52.156;20.942;2023-05-13T08:34:11;24.70;30.80
68924;DHT22;55961;52.156;20.942;2023-05-13T08:36:37;24.80;31.50
68924;DHT22;55961;52.156;20.942;2023-05-13T08:39:03;24.90;31.70
68924;DHT22;55961;52.156;20.942;2023-05-13T08:41:30;25.10;31.40
68924;DHT22;55961;52.156;20.942;2023-05-13T08:43:57;25.20;30.90
68924;DHT22;55961;52.156;20.942;2023-05-13T08:46:26;25.30;30.20
68924;DHT22;55961;52.156;20.942;2023-05-13T08:48:54;25.50;31.30
68924;DHT22;55961;52.156;20.942;2023-05-13T08:51:20;25.60;29.50
68924;DHT22;55961;52.156;20.942;2023-05-13T08:53:46;25.70;28.70
68924;DHT22;55961;52.156;20.942;2023-05-13T08:56:13;25.70;28.90
68924;DHT22;55961;52.156;20.942;2023-05-13T08:58:40;25.80;28.80
68924;DHT22;55961;52.156;20.942;2023-05-13T09:01:34;25.80;28.10
68924;DHT22;55961;52.156;20.942;2023-05-13T09:04:33;25.80;28.50
68924;DHT22;55961;52.156;20.942;2023-05-13T09:07:04;25.80;29.10
68924;DHT22;55961;52.156;20.942;2023-05-13T09:09:30;25.90;28.20
68924;DHT22;55961;52.156;20.942;2023-05-13T09:11:56;26.00;27.80
68924;DHT22;55961;52.156;20.942;2023-05-13T09:14:28;26.00;27.30
68924;DHT22;55961;52.156;20.942;2023-05-13T09:16:55;26.00;27.20
68924;DHT22;55961;52.156;20.942;2023-05-13T09:19:23;26.00;27.40
68924;DHT22;55961;52.156;20.942;2023-05-13T09:21:49;26.00;27.60
68924;DHT22;55961;52.156;20.942;2023-05-13T09:24:16;25.90;27.40
68924;DHT22;55961;52.156;20.942;2023-05-13T09:26:50;26.00;27.70
68924;DHT22;55961;52.156;20.942;2023-05-13T09:29:21;26.10;28.10
68924;DHT22;55961;52.156;20.942;2023-05-13T09:31:52;26.20;27.60
68924;DHT22;55961;52.156;20.942;2023-05-13T09:34:33;26.20;26.80
68924;DHT22;55961;52.156;20.942;2023-05-13T09:37:04;26.30;27.80
68924;DHT22;55961;52.156;20.942;2023-05-13T09:39:32;26.40;27.30
68924;DHT22;55961;52.156;20.942;2023-05-13T09:42:02;26.50;27.20
68924;DHT22;55961;52.156;20.942;2023-05-13T09:44:28;26.60;26.60
68924;DHT22;55961;52.156;20.942;2023-05-13T09:46:54;26.70;27.10
68924;DHT22;55961;52.156;20.942;2023-05-13T09:49:25;26.70;26.10
68924;DHT22;55961;52.156;20.942;2023-05-13T09:51:51;26.60;25.60
68924;DHT22;55961;52.156;20.942;2023-05-13T09:54:17;26.60;26.20
68924;DHT22;55961;52.156;20.942;2023-05-13T09:56:43;26.50;26.40
68924;DHT22;55961;52.156;20.942;2023-05-13T09:59:09;26.40;26.60
68924;DHT22;55961;52.156;20.942;2023-05-13T10:01:35;26.30;26.40
68924;DHT22;55961;52.156;20.942;2023-05-13T10:04:02;26.30;27.30
68924;DHT22;55961;52.156;20.942;2023-05-13T10:06:31;26.20;26.80
68924;DHT22;55961;52.156;20.942;2023-05-13T10:08:59;26.30;28.00
68924;DHT22;55961;52.156;20.942;2023-05-13T10:11:26;26.40;27.30
68924;DHT22;55961;52.156;20.942;2023-05-13T10:14:04;26.50;27.00
68924;DHT22;55961;52.156;20.942;2023-05-13T10:16:33;26.60;28.00
68924;DHT22;55961;52.156;20.942;2023-05-13T10:18:59;26.60;26.70
68924;DHT22;55961;52.156;20.942;2023-05-13T10:21:27;26.60;27.10
68924;DHT22;55961;52.156;20.942;2023-05-13T10:23:53;26.60;27.70
68924;DHT22;55961;52.156;20.942;2023-05-13T10:26:22;26.70;28.10
68924;DHT22;55961;52.156;20.942;2023-05-13T10:28:48;26.80;27.50
68924;DHT22;55961;52.156;20.942;2023-05-13T10:31:15;26.90;27.30
68924;DHT22;55961;52.156;20.942;2023-05-13T10:33:42;27.00;27.20
68924;DHT22;55961;52.156;20.942;2023-05-13T10:44:38;27.40;26.80
68924;DHT22;55961;52.156;20.942;2023-05-13T10:47:08;27.60;27.80
68924;DHT22;55961;52.156;20.942;2023-05-13T10:49:34;27.70;27.70
68924;DHT22;55961;52.156;20.942;2023-05-13T10:54:39;28.00;26.40
68924;DHT22;55961;52.156;20.942;2023-05-13T10:57:07;28.10;27.10
68924;DHT22;55961;52.156;20.942;2023-05-13T10:59:34;28.30;27.00
68924;DHT22;55961;52.156;20.942;2023-05-13T11:02:19;28.40;26.00
68924;DHT22;55961;52.156;20.942;2023-05-13T11:04:58;28.60;26.30
68924;DHT22;55961;52.156;20.942;2023-05-13T11:07:27;28.70;25.80
68924;DHT22;55961;52.156;20.942;2023-05-13T11:09:53;28.80;26.10
68924;DHT22;55961;52.156;20.942;2023-05-13T11:12:20;28.90;27.20
68924;DHT22;55961;52.156;20.942;2023-05-13T11:14:47;29.00;25.50
68924;DHT22;55961;52.156;20.942;2023-05-13T11:17:17;29.00;26.40
68924;DHT22;55961;52.156;20.942;2023-05-13T11:19:46;28.90;26.20
68924;DHT22;55961;52.156;20.942;2023-05-13T11:22:14;28.90;26.30
68924;DHT22;55961;52.156;20.942;2023-05-13T11:24:44;28.80;26.70
68924;DHT22;55961;52.156;20.942;2023-05-13T11:27:15;28.70;26.60
68924;DHT22;55961;52.156;20.942;2023-05-13T11:29:49;28.60;27.20
68924;DHT22;55961;52.156;20.942;2023-05-13T11:35:51;28.50;26.70
68924;DHT22;55961;52.156;20.942;2023-05-13T11:38:22;28.40;26.50
68924;DHT22;55961;52.156;20.942;2023-05-13T11:40:49;28.50;26.80
68924;DHT22;55961;52.156;20.942;2023-05-13T11:43:19;28.50;27.00
68924;DHT22;55961;52.156;20.942;2023-05-13T11:45:46;28.60;26.40
68924;DHT22;55961;52.156;20.942;2023-05-13T11:48:19;28.70;25.60
68924;DHT22;55961;52.156;20.942;2023-05-13T11:50:45;28.60;26.00
68924;DHT22;55961;52.156;20.942;2023-05-13T11:53:19;28.60;26.30
68924;DHT22;55961;52.156;20.942;2023-05-13T11:55:45;28.70;26.50
68924;DHT22;55961;52.156;20.942;2023-05-13T11:58:13;28.70;27.00
68924;DHT22;55961;52.156;20.942;2023-05-13T12:00:40;28.70;26.20
68924;DHT22;55961;52.156;20.942;2023-05-13T12:03:11;28.60;27.30
68924;DHT22;55961;52.156;20.942;2023-05-13T12:05:40;28.70;26.70
68924;DHT22;55961;52.156;20.942;2023-05-13T12:08:09;28.70;26.40
68924;DHT22;55961;52.156;20.942;2023-05-13T12:10:41;28.70;26.00
68924;DHT22;55961;52.156;20.942;2023-05-13T12:13:08;28.60;26.70
68924;DHT22;55961;52.156;20.942;2023-05-13T12:15:34;28.60;26.80
68924;DHT22;55961;52.156;20.942;2023-05-13T12:18:00;28.70;27.20
68924;DHT22;55961;52.156;20.942;2023-05-13T12:20:26;28.70;26.50
68924;DHT22;55961;52.156;20.942;2023-05-13T12:22:55;28.80;25.40
68924;DHT22;55961;52.156;20.942;2023-05-13T12:28:13;28.60;25.90
68924;DHT22;55961;52.156;20.942;2023-05-13T12:30:52;28.50;25.50
68924;DHT22;55961;52.156;20.942;2023-05-13T12:35:48;28.10;26.60
68924;DHT22;55961;52.156;20.942;2023-05-13T12:38:16;28.10;26.80
68924;DHT22;55961;52.156;20.942;2023-05-13T12:40:47;28.10;26.30
68924;DHT22;55961;52.156;20.942;2023-05-13T12:43:14;28.10;26.70
68924;DHT22;55961;52.156;20.942;2023-05-13T12:45:42;28.20;27.50
68924;DHT22;55961;52.156;20.942;2023-05-13T12:48:08;28.30;26.10
68924;DHT22;55961;52.156;20.942;2023-05-13T12:50:34;28.40;26.30
68924;DHT22;55961;52.156;20.942;2023-05-13T12:53:00;28.50;26.20
68924;DHT22;55961;52.156;20.942;2023-05-13T12:55:27;28.60;26.20
68924;DHT22;55961;52.156;20.942;2023-05-13T12:58:03;28.60;26.30
68924;DHT22;55961;52.156;20.942;2023-05-13T13:00:29;28.70;26.80
68924;DHT22;55961;52.156;20.942;2023-05-13T13:02:56;28.70;27.00
68924;DHT22;55961;52.156;20.942;2023-05-13T13:05:23;28.80;26.40
68924;DHT22;55961;52.156;20.942;2023-05-13T13:07:49;28.80;25.30
68924;DHT22;55961;52.156;20.942;2023-05-13T13:10:16;28.60;25.00
68924;DHT22;55961;52.156;20.942;2023-05-13T13:12:42;28.40;25.20
68924;DHT22;55961;52.156;20.942;2023-05-13T13:15:09;28.30;25.50
68924;DHT22;55961;52.156;20.942;2023-05-13T13:17:35;28.20;26.20
68924;DHT22;55961;52.156;20.942;2023-05-13T13:20:02;28.10;26.00
68924;DHT22;55961;52.156;20.942;2023-05-13T13:22:30;28.00;26.30
68924;DHT22;55961;52.156;20.942;2023-05-13T13:24:56;28.10;26.70
68924;DHT22;55961;52.156;20.942;2023-05-13T13:27:22;28.20;26.30
68924;DHT22;55961;52.156;20.942;2023-05-13T13:29:48;28.20;26.20
68924;DHT22;55961;52.156;20.942;2023-05-13T13:32:14;28.30;26.60
68924;DHT22;55961;52.156;20.942;2023-05-13T13:34:39;28.40;25.60
68924;DHT22;55961;52.156;20.942;2023-05-13T13:37:06;28.40;25.70
68924;DHT22;55961;52.156;20.942;2023-05-13T13:39:31;28.40;25.90
68924;DHT22;55961;52.156;20.942;2023-05-13T13:41:59;28.40;25.50
68924;DHT22;55961;52.156;20.942;2023-05-13T13:44:25;28.40;25.10
68924;DHT22;55961;52.156;20.942;2023-05-13T13:46:51;28.40;25.60
68924;DHT22;55961;52.156;20.942;2023-05-13T13:49:17;28.40;25.50
68924;DHT22;55961;52.156;20.942;2023-05-13T13:51:44;28.40;25.00
68924;DHT22;55961;52.156;20.942;2023-05-13T13:54:10;28.30;25.40
68924;DHT22;55961;52.156;20.942;2023-05-13T13:56:37;28.20;25.30
68924;DHT22;55961;52.156;20.942;2023-05-13T13:59:03;28.10;25.40
68924;DHT22;55961;52.156;20.942;2023-05-13T14:01:29;28.10;25.90
68924;DHT22;55961;52.156;20.942;2023-05-13T14:04:15;28.00;25.90
68924;DHT22;55961;52.156;20.942;2023-05-13T14:06:41;28.00;26.00
68924;DHT22;55961;52.156;20.942;2023-05-13T14:09:09;27.90;26.00
68924;DHT22;55961;52.156;20.942;2023-05-13T14:11:35;28.00;26.10
68924;DHT22;55961;52.156;20.942;2023-05-13T14:14:01;28.00;26.00
68924;DHT22;55961;52.156;20.942;2023-05-13T14:16:27;28.00;26.00
68924;DHT22;55961;52.156;20.942;2023-05-13T14:18:53;28.00;25.70
68924;DHT22;55961;52.156;20.942;2023-05-13T14:21:19;27.90;25.90
68924;DHT22;55961;52.156;20.942;2023-05-13T14:23:45;28.00;25.70
68924;DHT22;55961;52.156;20.942;2023-05-13T14:26:11;28.00;25.50
68924;DHT22;55961;52.156;20.942;2023-05-13T14:28:40;27.90;24.50
68924;DHT22;55961;52.156;20.942;2023-05-13T14:31:06;27.70;25.40
68924;DHT22;55961;52.156;20.942;2023-05-13T14:33:32;27.70;24.70
68924;DHT22;55961;52.156;20.942;2023-05-13T14:35:58;27.70;25.20
68924;DHT22;55961;52.156;20.942;2023-05-13T14:38:24;27.70;24.50
68924;DHT22;55961;52.156;20.942;2023-05-13T14:40:52;27.60;25.10
68924;DHT22;55961;52.156;20.942;2023-05-13T14:43:21;27.50;25.30
68924;DHT22;55961;52.156;20.942;2023-05-13T14:45:47;27.40;25.40
68924;DHT22;55961;52.156;20.942;2023-05-13T14:48:13;27.40;25.80
68924;DHT22;55961;52.156;20.942;2023-05-13T14:50:45;27.40;25.60
68924;DHT22;55961;52.156;20.942;2023-05-13T14:53:11;27.30;25.80
68924;DHT22;55961;52.156;20.942;2023-05-13T14:55:37;27.30;26.40
68924;DHT22;55961;52.156;20.942;2023-05-13T14:58:03;27.30;26.60
68924;DHT22;55961;52.156;20.942;2023-05-13T15:00:30;27.30;26.70
68924;DHT22;55961;52.156;20.942;2023-05-13T15:03:00;27.40;26.60
68924;DHT22;55961;52.156;20.942;2023-05-13T15:05:26;27.40;26.30
68924;DHT22;55961;52.156;20.942;2023-05-13T15:07:52;27.50;26.50
68924;DHT22;55961;52.156;20.942;2023-05-13T15:10:18;27.60;27.00
68924;DHT22;55961;52.156;20.942;2023-05-13T15:12:44;27.60;26.50
68924;DHT22;55961;52.156;20.942;2023-05-13T15:15:10;27.60;26.30
68924;DHT22;55961;52.156;20.942;2023-05-13T15:17:36;27.60;26.50
68924;DHT22;55961;52.156;20.942;2023-05-13T15:20:03;27.60;26.50
68924;DHT22;55961;52.156;20.942;2023-05-13T15:22:29;27.60;26.90
68924;DHT22;55961;52.156;20.942;2023-05-13T15:24:55;27.40;26.90
68924;DHT22;55961;52.156;20.942;2023-05-13T15:27:20;27.30;27.20
68924;DHT22;55961;52.156;20.942;2023-05-13T15:29:46;27.20;27.00
68924;DHT22;55961;52.156;20.942;2023-05-13T15:32:12;27.10;27.30
68924;DHT22;55961;52.156;20.942;2023-05-13T15:34:38;26.90;27.40
68924;DHT22;55961;52.156;20.942;2023-05-13T15:37:04;26.90;28.00
68924;DHT22;55961;52.156;20.942;2023-05-13T15:39:30;26.90;28.20